Somerset, Michigan
Current Conditions -  °F | °C
As of 6:15 AM on Sunday 21 Dec 2014 (Local Time) from KJYM Reporting Station
Haze Haze  
Wind Chill: 29°   Ceiling: 2100
Heat Index: 29°   Visibility: 4mi
Dew Point: 28°   Wind: 0mph
Humidity: 95%   Direction: NA
Pressure: 30.26"   Gusts: NA
Location:  42.05°N, 84.38°W
Report Text: KJYM 211115Z AUTO 00000KT 4SM BR OVC021 M02/M02 A3026 RMK AO2 T10181025
Loading
Personal Weather Stations






























Interactive Weather Map New forecast layout! Learn more

10-Day Weather Forecast

Advertisements
Track Severe Weather on mobile